Känerkinden
Datum - Zeit
TemperaturTaupunktFeuchteSolar Wind aus Richtung WindböenLuftdruck (QFF)RegenRegenstärkeTrend
04.09.2026 - 00.00Uhr18.5 °C12.1 °C66 %0.0 W/m²0.2 km/hNordosten1.4 km/h1021.2 hPa0.0 mm0.0 mm/hwechselhaft
04.09.2026 - 00.05Uhr18.3 °C12.0 °C67 %0.0 W/m²0.0 km/hNordosten0.0 km/h1021.1 hPa0.0 mm0.0 mm/hwechselhaft
04.09.2026 - 00.10Uhr18.4 °C12.0 °C66 %0.0 W/m²0.2 km/hNordosten1.4 km/h1021.0 hPa0.0 mm0.0 mm/hwechselhaft
04.09.2026 - 00.15Uhr18.3 °C11.9 °C67 %0.0 W/m²0.0 km/hNordosten0.0 km/h1021.0 hPa0.0 mm0.0 mm/hwechselhaft
04.09.2026 - 00.20Uhr18.5 °C11.8 °C65 %0.0 W/m²1.0 km/hNordosten3.2 km/h1021.0 hPa0.0 mm0.0 mm/hwechselhaft
04.09.2026 - 00.25Uhr18.7 °C11.9 °C64 %0.0 W/m²1.0 km/hNordosten3.2 km/h1021.0 hPa0.0 mm0.0 mm/hwechselhaft
04.09.2026 - 00.30Uhr18.8 °C11.8 °C64 %0.0 W/m²2.3 km/hNordosten4.7 km/h1020.9 hPa0.0 mm0.0 mm/hwechselhaft
04.09.2026 - 00.35Uhr18.7 °C11.8 °C64 %0.0 W/m²3.2 km/hOst-NO4.7 km/h1021.0 hPa0.0 mm0.0 mm/hwechselhaft
04.09.2026 - 00.40Uhr18.4 °C11.7 °C65 %0.0 W/m²1.8 km/hOst-NO3.2 km/h1020.9 hPa0.0 mm0.0 mm/hwechselhaft
04.09.2026 - 00.45Uhr18.3 °C11.6 °C65 %0.0 W/m²0.0 km/hOst-NO0.0 km/h1020.9 hPa0.0 mm0.0 mm/hwechselhaft
04.09.2026 - 00.50Uhr18.2 °C11.7 °C66 %0.0 W/m²1.9 km/hOsten6.5 km/h1020.9 hPa0.0 mm0.0 mm/hwechselhaft
04.09.2026 - 00.55Uhr18.3 °C11.6 °C65 %0.0 W/m²2.2 km/hOsten6.5 km/h1020.9 hPa0.0 mm0.0 mm/hwechselhaft
04.09.2026 - 01.00Uhr18.2 °C11.6 °C65 %0.0 W/m²2.5 km/hOsten6.5 km/h1020.9 hPa0.0 mm0.0 mm/hwechselhaft
04.09.2026 - 01.05Uhr18.1 °C11.5 °C66 %0.0 W/m²4.3 km/hOsten6.5 km/h1021.0 hPa0.0 mm0.0 mm/hwechselhaft
04.09.2026 - 01.10Uhr18.3 °C11.5 °C65 %0.0 W/m²3.1 km/hSüdosten6.5 km/h1020.9 hPa0.0 mm0.0 mm/hwechselhaft
04.09.2026 - 01.15Uhr18.5 °C11.6 °C64 %0.0 W/m²2.1 km/hOst-SO6.5 km/h1020.9 hPa0.0 mm0.0 mm/hwechselhaft
04.09.2026 - 01.20Uhr18.8 °C11.6 °C63 %0.0 W/m²3.1 km/hOst-SO6.5 km/h1021.0 hPa0.0 mm0.0 mm/hwechselhaft
04.09.2026 - 01.25Uhr18.8 °C11.6 °C63 %0.0 W/m²3.4 km/hOst-SO6.5 km/h1021.0 hPa0.0 mm0.0 mm/hwechselhaft
04.09.2026 - 01.30Uhr18.7 °C11.6 °C63 %0.0 W/m²3.3 km/hOst-SO6.5 km/h1021.0 hPa0.0 mm0.0 mm/hwechselhaft
04.09.2026 - 01.35Uhr18.5 °C11.6 °C64 %0.0 W/m²2.4 km/hOst-SO3.2 km/h1020.9 hPa0.0 mm0.0 mm/hwechselhaft
04.09.2026 - 01.40Uhr18.4 °C11.5 °C64 %0.0 W/m²1.6 km/hOst-SO3.2 km/h1020.9 hPa0.0 mm0.0 mm/hwechselhaft
04.09.2026 - 01.45Uhr18.5 °C11.7 °C65 %0.0 W/m²3.6 km/hOst-SO6.5 km/h1020.9 hPa0.0 mm0.0 mm/hwechselhaft
04.09.2026 - 01.50Uhr18.3 °C11.6 °C65 %0.0 W/m²2.8 km/hOst-SO6.5 km/h1020.8 hPa0.0 mm0.0 mm/hwechselhaft
04.09.2026 - 01.55Uhr18.2 °C11.5 °C65 %0.0 W/m²1.4 km/hOst-SO3.2 km/h1020.7 hPa0.0 mm0.0 mm/hwechselhaft
04.09.2026 - 02.00Uhr18.1 °C11.6 °C66 %0.0 W/m²2.4 km/hOst-SO6.5 km/h1020.6 hPa0.0 mm0.0 mm/hwechselhaft
04.09.2026 - 02.05Uhr18.0 °C11.6 °C66 %0.0 W/m²3.2 km/hOst-NO6.5 km/h1020.6 hPa0.0 mm0.0 mm/hwechselhaft
04.09.2026 - 02.10Uhr18.1 °C11.6 °C66 %0.0 W/m²1.8 km/hNordosten4.7 km/h1020.5 hPa0.0 mm0.0 mm/hwechselhaft
04.09.2026 - 02.15Uhr18.0 °C11.7 °C67 %0.0 W/m²1.5 km/hOst-NO3.2 km/h1020.5 hPa0.0 mm0.0 mm/hwechselhaft
04.09.2026 - 02.20Uhr17.9 °C11.7 °C67 %0.0 W/m²2.1 km/hNord-NO6.5 km/h1020.5 hPa0.0 mm0.0 mm/hwechselhaft
04.09.2026 - 02.25Uhr17.9 °C11.6 °C66 %0.0 W/m²1.6 km/hNorden4.7 km/h1020.5 hPa0.0 mm0.0 mm/hwechselhaft
04.09.2026 - 02.30Uhr18.3 °C11.6 °C65 %0.0 W/m²0.7 km/hNorden1.4 km/h1020.5 hPa0.0 mm0.0 mm/hwechselhaft
04.09.2026 - 02.35Uhr18.4 °C11.7 °C65 %0.0 W/m²1.4 km/hNorden3.2 km/h1020.5 hPa0.0 mm0.0 mm/hwechselhaft
04.09.2026 - 02.40Uhr18.1 °C11.7 °C66 %0.0 W/m²0.0 km/hNorden0.0 km/h1020.6 hPa0.0 mm0.0 mm/hwechselhaft
04.09.2026 - 02.45Uhr18.0 °C11.6 °C66 %0.0 W/m²0.6 km/hNorden1.4 km/h1020.6 hPa0.0 mm0.0 mm/hwechselhaft
04.09.2026 - 02.50Uhr17.9 °C11.6 °C66 %0.0 W/m²1.7 km/hNorden3.2 km/h1020.5 hPa0.0 mm0.0 mm/hwechselhaft
04.09.2026 - 02.55Uhr17.6 °C11.5 °C67 %0.0 W/m²1.4 km/hOsten3.2 km/h1020.5 hPa0.0 mm0.0 mm/hwechselhaft
04.09.2026 - 03.00Uhr17.7 °C11.5 °C67 %0.0 W/m²0.0 km/hOsten0.0 km/h1020.5 hPa0.0 mm0.0 mm/hwechselhaft
04.09.2026 - 03.05Uhr17.6 °C11.4 °C67 %0.0 W/m²2.9 km/hOsten6.5 km/h1020.5 hPa0.0 mm0.0 mm/hwechselhaft
04.09.2026 - 03.10Uhr17.7 °C11.5 °C67 %0.0 W/m²2.8 km/hOsten6.5 km/h1020.5 hPa0.0 mm0.0 mm/hwechselhaft
04.09.2026 - 03.15Uhr17.8 °C11.6 °C67 %0.0 W/m²2.5 km/hOsten6.5 km/h1020.4 hPa0.0 mm0.0 mm/hwechselhaft
04.09.2026 - 03.20Uhr17.7 °C11.5 °C67 %0.0 W/m²1.8 km/hOsten3.2 km/h1020.4 hPa0.0 mm0.0 mm/hwechselhaft
04.09.2026 - 03.25Uhr17.5 °C11.5 °C68 %0.0 W/m²3.0 km/hOst-NO4.7 km/h1020.3 hPa0.0 mm0.0 mm/hwechselhaft
04.09.2026 - 03.30Uhr17.3 °C11.6 °C69 %0.0 W/m²1.1 km/hOst-NO4.7 km/h1020.3 hPa0.0 mm0.0 mm/hwechselhaft
04.09.2026 - 03.35Uhr17.3 °C11.4 °C69 %0.0 W/m²0.0 km/hOst-NO0.0 km/h1020.2 hPa0.0 mm0.0 mm/hwechselhaft
04.09.2026 - 03.40Uhr17.4 °C11.4 °C68 %0.0 W/m²0.0 km/hOst-NO0.0 km/h1020.1 hPa0.0 mm0.0 mm/hwechselhaft
04.09.2026 - 03.45Uhr17.1 °C11.4 °C69 %0.0 W/m²0.0 km/hOst-NO0.0 km/h1020.1 hPa0.0 mm0.0 mm/hwechselhaft
04.09.2026 - 03.50Uhr17.1 °C11.4 °C69 %0.0 W/m²0.2 km/hOst-NO1.4 km/h1020.2 hPa0.0 mm0.0 mm/hwechselhaft
04.09.2026 - 03.55Uhr17.5 °C11.5 °C68 %0.0 W/m²4.0 km/hOsten6.5 km/h1020.1 hPa0.0 mm0.0 mm/hwechselhaft
04.09.2026 - 04.00Uhr17.7 °C11.5 °C67 %0.0 W/m²1.1 km/hOsten3.2 km/h1020.1 hPa0.0 mm0.0 mm/hwechselhaft
04.09.2026 - 04.05Uhr17.7 °C11.5 °C67 %0.0 W/m²1.0 km/hOsten3.2 km/h1020.1 hPa0.0 mm0.0 mm/hwechselhaft
04.09.2026 - 04.10Uhr17.6 °C11.5 °C67 %0.0 W/m²3.5 km/hOst-NO4.7 km/h1020.0 hPa0.0 mm0.0 mm/hwechselhaft
04.09.2026 - 04.15Uhr17.6 °C11.6 °C68 %0.0 W/m²4.9 km/hOst-NO6.5 km/h1020.0 hPa0.0 mm0.0 mm/hwechselhaft
04.09.2026 - 04.20Uhr17.6 °C11.6 °C68 %0.0 W/m²3.5 km/hOst-NO6.5 km/h1019.9 hPa0.0 mm0.0 mm/hwechselhaft
04.09.2026 - 04.25Uhr17.6 °C11.6 °C68 %0.0 W/m²0.0 km/hOst-NO0.0 km/h1019.8 hPa0.0 mm0.0 mm/hwechselhaft
04.09.2026 - 04.30Uhr17.4 °C11.4 °C68 %0.0 W/m²0.0 km/hOst-NO0.0 km/h1019.7 hPa0.0 mm0.0 mm/hwechselhaft
04.09.2026 - 04.35Uhr17.3 °C11.4 °C68 %0.0 W/m²0.0 km/hOst-NO0.0 km/h1019.7 hPa0.0 mm0.0 mm/hwechselhaft
04.09.2026 - 04.40Uhr17.3 °C11.5 °C69 %0.0 W/m²0.0 km/hNordosten0.0 km/h1019.7 hPa0.0 mm0.0 mm/hwechselhaft
04.09.2026 - 04.45Uhr17.6 °C11.4 °C67 %0.0 W/m²0.0 km/hOst-NO0.0 km/h1019.6 hPa0.0 mm0.0 mm/hwechselhaft
04.09.2026 - 04.50Uhr17.6 °C11.5 °C67 %0.0 W/m²2.4 km/hOsten4.7 km/h1019.6 hPa0.0 mm0.0 mm/hwechselhaft
04.09.2026 - 04.55Uhr17.3 °C11.4 °C68 %0.0 W/m²1.4 km/hOsten3.2 km/h1019.6 hPa0.0 mm0.0 mm/hwechselhaft
04.09.2026 - 05.00Uhr17.3 °C11.3 °C68 %0.0 W/m²2.9 km/hOst-NO4.7 km/h1019.6 hPa0.0 mm0.0 mm/hwechselhaft
04.09.2026 - 05.05Uhr17.3 °C11.2 °C68 %0.0 W/m²1.1 km/hOst-NO3.2 km/h1019.6 hPa0.0 mm0.0 mm/hwechselhaft
04.09.2026 - 05.10Uhr17.4 °C11.3 °C68 %0.0 W/m²0.7 km/hOst-NO3.2 km/h1019.6 hPa0.0 mm0.0 mm/hwechselhaft
04.09.2026 - 05.15Uhr17.2 °C11.3 °C68 %0.0 W/m²0.0 km/hOst-NO0.0 km/h1019.6 hPa0.0 mm0.0 mm/hwechselhaft
04.09.2026 - 05.20Uhr17.0 °C11.3 °C69 %0.0 W/m²0.0 km/hOst-NO0.0 km/h1019.7 hPa0.0 mm0.0 mm/hwechselhaft
04.09.2026 - 05.25Uhr17.0 °C11.3 °C69 %0.0 W/m²0.0 km/hOst-NO0.0 km/h1019.6 hPa0.0 mm0.0 mm/hwechselhaft
04.09.2026 - 05.30Uhr16.6 °C11.0 °C69 %0.0 W/m²0.0 km/hOst-NO0.0 km/h1019.5 hPa0.0 mm0.0 mm/hwechselhaft
04.09.2026 - 05.35Uhr16.1 °C10.7 °C71 %0.0 W/m²0.0 km/hOst-NO0.0 km/h1019.5 hPa0.0 mm0.0 mm/hwechselhaft
04.09.2026 - 05.40Uhr15.8 °C10.8 °C72 %0.0 W/m²0.0 km/hOst-NO0.0 km/h1019.4 hPa0.0 mm0.0 mm/hwechselhaft
04.09.2026 - 05.45Uhr15.8 °C10.8 °C72 %0.0 W/m²0.0 km/hOst-NO0.0 km/h1019.3 hPa0.0 mm0.0 mm/hwechselhaft
04.09.2026 - 05.50Uhr15.6 °C10.8 °C73 %0.0 W/m²0.0 km/hOst-NO0.0 km/h1019.3 hPa0.0 mm0.0 mm/hwechselhaft
04.09.2026 - 05.55Uhr15.4 °C10.7 °C73 %0.0 W/m²0.0 km/hOst-NO0.0 km/h1019.4 hPa0.0 mm0.0 mm/hwechselhaft
04.09.2026 - 06.00Uhr15.8 °C10.9 °C73 %0.0 W/m²0.0 km/hOst-NO0.0 km/h1019.4 hPa0.0 mm0.0 mm/hwechselhaft
04.09.2026 - 06.05Uhr16.3 °C11.0 °C71 %0.0 W/m²0.0 km/hOst-NO0.0 km/h1019.3 hPa0.0 mm0.0 mm/hwechselhaft
04.09.2026 - 06.10Uhr16.2 °C10.9 °C71 %0.0 W/m²0.0 km/hOst-NO0.0 km/h1019.3 hPa0.0 mm0.0 mm/hwechselhaft
04.09.2026 - 06.15Uhr16.1 °C11.1 °C72 %0.0 W/m²0.0 km/hOst-NO0.0 km/h1019.3 hPa0.0 mm0.0 mm/hwechselhaft
04.09.2026 - 06.20Uhr16.1 °C11.1 °C72 %0.0 W/m²0.0 km/hOst-NO0.0 km/h1019.2 hPa0.0 mm0.0 mm/hwechselhaft
04.09.2026 - 06.25Uhr15.9 °C11.0 °C72 %0.0 W/m²0.0 km/hOst-NO0.0 km/h1019.1 hPa0.0 mm0.0 mm/hwechselhaft
04.09.2026 - 06.30Uhr15.8 °C11.0 °C73 %0.0 W/m²0.0 km/hOst-NO0.0 km/h1019.2 hPa0.0 mm0.0 mm/hwechselhaft
04.09.2026 - 06.35Uhr15.5 °C10.7 °C73 %0.0 W/m²0.0 km/hOst-NO0.0 km/h1019.2 hPa0.0 mm0.0 mm/hwechselhaft
04.09.2026 - 06.40Uhr15.2 °C10.6 °C74 %0.0 W/m²0.0 km/hOst-NO0.0 km/h1019.1 hPa0.0 mm0.0 mm/hwechselhaft
04.09.2026 - 06.45Uhr15.3 °C10.7 °C74 %0.0 W/m²0.0 km/hOst-NO0.0 km/h1019.1 hPa0.0 mm0.0 mm/hwechselhaft
04.09.2026 - 06.50Uhr15.4 °C10.8 °C74 %0.0 W/m²0.0 km/hOst-NO0.0 km/h1019.0 hPa0.0 mm0.0 mm/hwechselhaft
04.09.2026 - 06.55Uhr15.5 °C10.9 °C74 %5.0 W/m²0.0 km/hOst-NO0.0 km/h1019.0 hPa0.0 mm0.0 mm/hwechselhaft
04.09.2026 - 07.00Uhr15.5 °C10.9 °C74 %9.0 W/m²0.0 km/hOsten0.0 km/h1019.0 hPa0.0 mm0.0 mm/hwechselhaft
04.09.2026 - 07.05Uhr15.6 °C11.0 °C74 %11.0 W/m²0.0 km/hOsten0.0 km/h1018.9 hPa0.0 mm0.0 mm/hwechselhaft
04.09.2026 - 07.10Uhr15.7 °C11.0 °C73 %12.0 W/m²2.2 km/hOsten6.5 km/h1018.9 hPa0.0 mm0.0 mm/hwechselhaft
04.09.2026 - 07.15Uhr15.8 °C11.0 °C73 %19.0 W/m²3.2 km/hOsten4.7 km/h1018.9 hPa0.0 mm0.0 mm/hwechselhaft
04.09.2026 - 07.20Uhr16.0 °C11.2 °C73 %25.0 W/m²2.8 km/hOst-NO6.5 km/h1018.8 hPa0.0 mm0.0 mm/hwechselhaft
04.09.2026 - 07.25Uhr16.4 °C11.2 °C72 %33.0 W/m²3.6 km/hOst-NO6.5 km/h1018.8 hPa0.0 mm0.0 mm/hwechselhaft
04.09.2026 - 07.30Uhr16.8 °C11.4 °C70 %44.0 W/m²4.2 km/hOst-NO6.5 km/h1018.8 hPa0.0 mm0.0 mm/hwechselhaft
04.09.2026 - 07.35Uhr17.2 °C11.6 °C70 %56.0 W/m²0.0 km/hOst-NO0.0 km/h1018.8 hPa0.0 mm0.0 mm/hwechselhaft
04.09.2026 - 07.40Uhr17.2 °C11.7 °C70 %69.0 W/m²0.0 km/hOst-NO0.0 km/h1018.9 hPa0.0 mm0.0 mm/hwechselhaft
04.09.2026 - 07.45Uhr17.3 °C11.8 °C70 %83.0 W/m²0.0 km/hOst-NO0.0 km/h1018.8 hPa0.0 mm0.0 mm/hwechselhaft
04.09.2026 - 07.50Uhr17.4 °C11.9 °C70 %98.0 W/m²0.0 km/hOst-NO0.0 km/h1018.8 hPa0.0 mm0.0 mm/hwechselhaft
04.09.2026 - 07.55Uhr18.0 °C12.1 °C68 %111.0 W/m²0.4 km/hSüdosten3.2 km/h1018.7 hPa0.0 mm0.0 mm/hwechselhaft
04.09.2026 - 08.00Uhr18.5 °C12.2 °C67 %118.0 W/m²4.9 km/hOst-SO7.9 km/h1018.7 hPa0.0 mm0.0 mm/hwechselhaft
04.09.2026 - 08.05Uhr19.0 °C12.4 °C65 %120.0 W/m²5.6 km/hOst-SO7.9 km/h1018.7 hPa0.0 mm0.0 mm/hwechselhaft
04.09.2026 - 08.10Uhr19.4 °C12.4 °C64 %142.0 W/m²5.0 km/hOst-SO7.9 km/h1018.6 hPa0.0 mm0.0 mm/hwechselhaft
04.09.2026 - 08.15Uhr19.7 °C12.6 °C63 %178.0 W/m²6.8 km/hOst-SO11.2 km/h1018.7 hPa0.0 mm0.0 mm/hwechselhaft
04.09.2026 - 08.20Uhr19.9 °C12.7 °C63 %200.0 W/m²7.2 km/hOst-SO13.0 km/h1018.7 hPa0.0 mm0.0 mm/hwechselhaft
04.09.2026 - 08.25Uhr20.0 °C12.7 °C63 %216.0 W/m²8.4 km/hOst-SO11.2 km/h1018.7 hPa0.0 mm0.0 mm/hwechselhaft
04.09.2026 - 08.30Uhr20.2 °C12.9 °C63 %230.0 W/m²6.1 km/hOst-SO9.7 km/h1018.7 hPa0.0 mm0.0 mm/hwechselhaft
04.09.2026 - 08.35Uhr20.4 °C13.0 °C62 %246.0 W/m²5.2 km/hOsten11.2 km/h1018.7 hPa0.0 mm0.0 mm/hwechselhaft
04.09.2026 - 08.40Uhr20.6 °C13.2 °C62 %260.0 W/m²4.9 km/hOsten9.7 km/h1018.7 hPa0.0 mm0.0 mm/hwechselhaft
04.09.2026 - 08.45Uhr20.9 °C13.2 °C62 %274.0 W/m²4.6 km/hOsten9.7 km/h1018.7 hPa0.0 mm0.0 mm/hwechselhaft
04.09.2026 - 08.50Uhr21.1 °C13.3 °C61 %279.0 W/m²5.3 km/hOst-SO9.7 km/h1018.6 hPa0.0 mm0.0 mm/hwechselhaft
04.09.2026 - 08.55Uhr21.4 °C13.5 °C60 %271.0 W/m²7.4 km/hOst-SO11.2 km/h1018.5 hPa0.0 mm0.0 mm/hwechselhaft
04.09.2026 - 09.00Uhr21.7 °C13.4 °C59 %313.0 W/m²5.6 km/hOst-SO11.2 km/h1018.4 hPa0.0 mm0.0 mm/hwechselhaft
04.09.2026 - 09.05Uhr21.9 °C13.6 °C59 %329.0 W/m²4.2 km/hOsten7.9 km/h1018.5 hPa0.0 mm0.0 mm/hwechselhaft
04.09.2026 - 09.10Uhr22.2 °C13.7 °C59 %343.0 W/m²4.4 km/hOsten7.9 km/h1018.5 hPa0.0 mm0.0 mm/hwechselhaft
04.09.2026 - 09.15Uhr22.5 °C13.7 °C57 %359.0 W/m²4.1 km/hOst-SO7.9 km/h1018.5 hPa0.0 mm0.0 mm/hwechselhaft
04.09.2026 - 09.20Uhr22.8 °C13.9 °C57 %373.0 W/m²6.7 km/hOst-SO11.2 km/h1018.5 hPa0.0 mm0.0 mm/hwechselhaft
04.09.2026 - 09.25Uhr22.7 °C13.8 °C57 %385.0 W/m²7.9 km/hOst-SO13.0 km/h1018.4 hPa0.0 mm0.0 mm/hwechselhaft
04.09.2026 - 09.30Uhr22.7 °C13.8 °C57 %399.0 W/m²9.6 km/hOst-SO14.4 km/h1018.4 hPa0.0 mm0.0 mm/hwechselhaft
04.09.2026 - 09.35Uhr22.7 °C13.9 °C58 %406.0 W/m²7.7 km/hOst-SO16.2 km/h1018.3 hPa0.0 mm0.0 mm/hwechselhaft
04.09.2026 - 09.40Uhr22.7 °C13.9 °C58 %408.0 W/m²8.3 km/hOst-SO13.0 km/h1018.2 hPa0.0 mm0.0 mm/hwechselhaft
04.09.2026 - 09.45Uhr22.8 °C14.1 °C58 %406.0 W/m²8.6 km/hOst-SO19.4 km/h1018.1 hPa0.0 mm0.0 mm/hwechselhaft
04.09.2026 - 09.50Uhr22.8 °C14.1 °C58 %403.0 W/m²7.6 km/hSüdosten14.4 km/h1018.1 hPa0.0 mm0.0 mm/hwechselhaft
04.09.2026 - 09.55Uhr22.8 °C14.2 °C58 %392.0 W/m²8.3 km/hOst-SO14.4 km/h1018.1 hPa0.0 mm0.0 mm/hwechselhaft
04.09.2026 - 10.00Uhr22.8 °C14.2 °C58 %371.0 W/m²8.4 km/hOst-SO13.0 km/h1018.2 hPa0.0 mm0.0 mm/hwechselhaft
04.09.2026 - 10.05Uhr22.9 °C14.3 °C59 %367.0 W/m²9.1 km/hOst-SO17.6 km/h1018.1 hPa0.0 mm0.0 mm/hwechselhaft
04.09.2026 - 10.10Uhr23.0 °C14.4 °C59 %339.0 W/m²8.7 km/hOst-SO14.4 km/h1018.1 hPa0.0 mm0.0 mm/hwechselhaft
04.09.2026 - 10.15Uhr23.3 °C14.5 °C58 %315.0 W/m²7.6 km/hOst-SO13.0 km/h1018.1 hPa0.0 mm0.0 mm/hwechselhaft
04.09.2026 - 10.20Uhr23.5 °C14.5 °C57 %397.0 W/m²7.5 km/hSüdosten13.0 km/h1018.1 hPa0.0 mm0.0 mm/hwechselhaft
04.09.2026 - 10.25Uhr23.6 °C14.5 °C57 %461.0 W/m²7.0 km/hOst-SO13.0 km/h1018.1 hPa0.0 mm0.0 mm/hwechselhaft
04.09.2026 - 10.30Uhr24.1 °C14.6 °C55 %538.0 W/m²6.8 km/hOst-SO11.2 km/h1018.1 hPa0.0 mm0.0 mm/hwechselhaft
04.09.2026 - 10.35Uhr24.3 °C14.6 °C55 %555.0 W/m²8.0 km/hSüdosten14.4 km/h1018.1 hPa0.0 mm0.0 mm/hwechselhaft
04.09.2026 - 10.40Uhr24.5 °C14.9 °C55 %563.0 W/m²7.6 km/hSüdosten17.6 km/h1018.1 hPa0.0 mm0.0 mm/hwechselhaft
04.09.2026 - 10.45Uhr24.6 °C14.8 °C54 %575.0 W/m²7.9 km/hOst-SO13.0 km/h1018.0 hPa0.0 mm0.0 mm/hwechselhaft
04.09.2026 - 10.50Uhr24.7 °C14.8 °C54 %584.0 W/m²8.9 km/hOst-SO14.4 km/h1018.0 hPa0.0 mm0.0 mm/hwechselhaft
04.09.2026 - 10.55Uhr25.0 °C15.0 °C54 %594.0 W/m²7.0 km/hOst-SO13.0 km/h1018.0 hPa0.0 mm0.0 mm/hwechselhaft
04.09.2026 - 11.00Uhr25.2 °C14.9 °C53 %603.0 W/m²7.5 km/hSüdosten11.2 km/h1018.0 hPa0.0 mm0.0 mm/hwechselhaft
04.09.2026 - 11.05Uhr25.2 °C14.9 °C53 %615.0 W/m²8.2 km/hOst-SO13.0 km/h1018.0 hPa0.0 mm0.0 mm/hwechselhaft
04.09.2026 - 11.10Uhr25.5 °C15.4 °C54 %617.0 W/m²9.5 km/hOst-SO14.4 km/h1017.9 hPa0.0 mm0.0 mm/hwechselhaft